Time;durP1;ratioP1;P1;durP2;ratioP2;P2;SDS_P1;SDS_P2;PMS_P1;PMS_P2;Temp;Humidity;BMP_temperature;BMP_pressure;BME280_temperature;BME280_humidity;BME280_pressure;Samples;Min_cycle;Max_cycle;Signal;HPM_P1;HPM_P2
2021/12/02 00:01:57;;;;;;;11.73;6.05;;;;;;;-0.17;87.50;94263.13;5032106;28;20220;-76
2021/12/02 00:04:26;;;;;;;16.70;7.85;;;;;;;-0.32;87.88;94260.50;5020816;28;20197;-76
2021/12/02 00:06:55;;;;;;;13.07;5.63;;;;;;;-0.18;88.02;94272.19;5025028;28;20723;-74
2021/12/02 00:09:21;;;;;;;14.00;6.40;;;;;;;-0.29;87.27;94281.25;5023020;28;20200;-77
2021/12/02 00:11:50;;;;;;;8.73;4.32;;;;;;;-0.22;87.17;94281.75;5013687;28;20205;-75
2021/12/02 00:14:23;;;;;;;12.45;6.47;;;;;;;-0.33;88.08;94280.19;5023196;28;20200;-75
2021/12/02 00:17:03;;;;;;;16.35;5.05;;;;;;;-0.29;88.17;94291.88;5017748;28;20259;-76
2021/12/02 00:22:15;;;;;;;12.30;5.90;;;;;;;-0.60;88.26;94279.66;5031292;28;20655;-76
2021/12/02 00:24:48;;;;;;;12.13;4.80;;;;;;;-0.29;87.93;94275.94;5017522;28;20196;-76
2021/12/02 00:27:18;;;;;;;11.63;4.47;;;;;;;-0.27;88.38;94279.09;5031381;28;20219;-76
2021/12/02 00:29:47;;;;;;;11.35;4.97;;;;;;;-0.24;88.55;94283.88;5016447;28;20208;-77
2021/12/02 00:32:14;;;;;;;7.53;3.78;;;;;;;-0.31;88.26;94285.25;5030679;28;20675;-77
2021/12/02 00:34:44;;;;;;;10.68;5.18;;;;;;;-0.38;88.39;94272.19;5039411;28;20215;-77
2021/12/02 00:37:12;;;;;;;6.75;4.10;;;;;;;-0.30;88.22;94294.81;5037406;28;20236;-76
2021/12/02 00:39:40;;;;;;;10.75;5.05;;;;;;;-0.33;88.37;94301.47;5023715;28;20197;-77
2021/12/02 00:42:08;;;;;;;7.53;3.70;;;;;;;-0.25;88.26;94292.94;5024916;28;20215;-76
2021/12/02 00:44:37;;;;;;;15.02;5.75;;;;;;;-0.19;87.98;94285.75;5023375;28;20201;-76
2021/12/02 00:47:05;;;;;;;11.98;4.78;;;;;;;-0.29;88.65;94291.09;5023436;28;20682;-76
2021/12/02 00:49:32;;;;;;;9.32;5.28;;;;;;;-0.30;88.99;94287.63;5019589;28;20211;-76
2021/12/02 00:52:00;;;;;;;13.93;5.65;;;;;;;-0.60;89.33;94267.16;5017568;28;20215;-76
2021/12/02 00:54:29;;;;;;;17.25;7.20;;;;;;;-0.64;89.83;94278.59;5022037;28;20201;-77
2021/12/02 00:56:57;;;;;;;22.13;9.35;;;;;;;-0.56;90.57;94275.41;5026506;28;20674;-76
2021/12/02 00:59:24;;;;;;;18.70;8.07;;;;;;;-0.59;89.91;94271.44;5021344;28;20216;-77
2021/12/02 01:01:52;;;;;;;12.15;5.50;;;;;;;-0.66;89.33;94296.69;5024129;28;20683;-77
2021/12/02 01:04:23;;;;;;;12.88;6.38;;;;;;;-0.56;88.75;94286.84;5020828;28;20569;-77
2021/12/02 01:06:50;;;;;;;12.93;5.78;;;;;;;-0.47;88.34;94279.13;5017553;28;20208;-77
2021/12/02 01:09:17;;;;;;;11.50;6.32;;;;;;;-0.38;87.43;94282.84;5020163;28;20608;-77
2021/12/02 01:11:44;;;;;;;9.30;4.63;;;;;;;-0.41;87.45;94280.72;5024451;28;20239;-77
2021/12/02 01:14:12;;;;;;;18.58;5.38;;;;;;;-0.51;87.49;94284.19;5022091;28;20200;-78
2021/12/02 01:16:39;;;;;;;13.65;6.03;;;;;;;-0.53;86.76;94286.31;5030709;28;20288;-78
2021/12/02 01:19:09;;;;;;;8.82;4.07;;;;;;;-0.93;88.19;94297.72;5030332;28;20205;-77
2021/12/02 01:21:38;;;;;;;9.43;4.63;;;;;;;-0.74;88.79;94296.16;5017303;28;20973;-78
2021/12/02 01:24:07;;;;;;;9.23;4.65;;;;;;;-0.53;88.48;94290.81;5018071;28;20205;-77
2021/12/02 01:26:36;;;;;;;3.72;2.67;;;;;;;-0.59;88.46;94294.56;5029856;28;20200;-77
2021/12/02 01:29:04;;;;;;;9.25;4.18;;;;;;;-0.60;88.41;94285.78;5017435;28;20212;-77
2021/12/02 01:31:33;;;;;;;9.77;4.63;;;;;;;-0.79;89.38;94285.50;5017702;28;20201;-77
2021/12/02 01:34:02;;;;;;;8.60;4.90;;;;;;;-0.70;89.70;94290.31;5032726;28;20226;-77
2021/12/02 01:36:35;;;;;;;11.18;4.15;;;;;;;-0.80;89.18;94304.38;5030468;28;20281;-77
2021/12/02 01:39:03;;;;;;;13.88;4.90;;;;;;;-0.54;89.32;94299.88;5015793;28;20193;-77
2021/12/02 01:41:38;;;;;;;12.00;4.85;;;;;;;-0.44;88.68;94310.53;5011648;28;20208;-78
2021/12/02 01:44:10;;;;;;;10.18;5.13;;;;;;;-0.90;88.19;94313.16;5027584;28;20213;-76
2021/12/02 01:46:38;;;;;;;8.15;4.90;;;;;;;-0.66;89.16;94302.78;5024410;28;20204;-77
2021/12/02 01:49:05;;;;;;;8.07;3.95;;;;;;;-0.69;88.27;94287.38;5020646;28;20258;-76
2021/12/02 01:51:39;;;;;;;9.00;5.00;;;;;;;-0.75;88.88;94289.25;5023262;28;20208;-77
2021/12/02 01:54:09;;;;;;;8.52;4.40;;;;;;;-0.64;88.14;94289.22;5027062;28;20581;-77
2021/12/02 01:56:42;;;;;;;7.72;4.40;;;;;;;-0.54;88.03;94275.94;5026141;28;20248;-77
2021/12/02 01:59:12;;;;;;;8.98;4.60;;;;;;;-0.43;87.75;94272.22;5021312;28;20203;-76
2021/12/02 02:01:42;;;;;;;10.65;4.93;;;;;;;-0.50;88.63;94263.69;5033888;28;20212;-77
2021/12/02 02:04:10;;;;;;;16.15;5.15;;;;;;;-0.53;88.11;94251.72;5034026;28;20203;-77
2021/12/02 02:06:41;;;;;;;13.50;4.55;;;;;;;-0.53;88.75;94258.91;5020482;28;20209;-77
2021/12/02 02:09:11;;;;;;;12.85;4.43;;;;;;;-0.56;88.76;94248.81;5024401;28;20200;-77
2021/12/02 02:11:38;;;;;;;8.65;4.68;;;;;;;-0.40;88.89;94247.72;5027486;28;20596;-76
2021/12/02 02:14:08;;;;;;;10.07;4.00;;;;;;;-0.36;88.67;94243.47;5023671;28;20204;-77
2021/12/02 02:16:36;;;;;;;4.13;2.35;;;;;;;-0.27;89.13;94241.84;5033503;28;20232;-77
2021/12/02 02:19:04;;;;;;;8.00;3.83;;;;;;;-0.09;88.69;94243.13;5033737;28;20738;-77
2021/12/02 02:21:35;;;;;;;10.80;3.88;;;;;;;-0.25;88.96;94222.94;5020382;28;20212;-77
2021/12/02 02:24:02;;;;;;;5.35;2.38;;;;;;;-0.67;88.66;94231.25;5021694;28;20202;-77
2021/12/02 02:26:31;;;;;;;18.05;6.43;;;;;;;-0.77;90.88;94243.50;5026910;28;20216;-76
2021/12/02 02:28:59;;;;;;;5.93;3.35;;;;;;;-0.24;90.16;94241.31;5013882;28;20201;-76
2021/12/02 02:31:29;;;;;;;10.05;3.75;;;;;;;0.15;89.17;94224.69;5026892;28;20215;-75
2021/12/02 02:33:58;;;;;;;13.95;4.97;;;;;;;0.14;88.23;94239.06;5028480;28;20780;-76
2021/12/02 02:36:26;;;;;;;6.45;3.83;;;;;;;0.56;87.95;94239.41;5033405;28;20667;-75
2021/12/02 02:38:56;;;;;;;6.80;4.57;;;;;;;0.68;86.80;94245.19;5019744;28;20204;-76
2021/12/02 02:41:25;;;;;;;4.82;2.90;;;;;;;0.25;87.11;94248.63;5025871;28;20205;-78
2021/12/02 02:43:56;;;;;;;14.70;5.90;;;;;;;-0.07;87.66;94260.44;5026475;28;20227;-77
2021/12/02 02:46:25;;;;;;;9.88;5.00;;;;;;;-0.08;88.65;94250.84;5021639;28;20193;-75
2021/12/02 02:48:52;;;;;;;8.15;4.30;;;;;;;-0.17;87.95;94255.16;5019683;28;20266;-76
2021/12/02 02:51:19;;;;;;;10.52;5.35;;;;;;;-0.33;87.89;94242.94;5032972;28;20201;-76
2021/12/02 02:53:52;;;;;;;10.23;5.03;;;;;;;-0.55;88.33;94261.06;5029839;28;20656;-75
2021/12/02 02:56:22;;;;;;;8.98;4.63;;;;;;;-0.59;89.03;94250.16;5022640;28;20231;-76
2021/12/02 02:59:00;;;;;;;5.28;3.08;;;;;;;-0.75;88.22;94257.34;5045871;28;20274;-76
2021/12/02 03:04:30;;;;;;;9.85;5.03;;;;;;;-0.76;89.88;94246.97;5021334;28;20207;-76
2021/12/02 03:07:01;;;;;;;12.02;5.30;;;;;;;-0.88;89.48;94235.78;5027754;28;20204;-76
2021/12/02 03:12:19;;;;;;;12.35;6.22;;;;;;;-0.80;90.59;94238.72;5020803;28;20681;-77
2021/12/02 03:14:54;;;;;;;14.40;4.80;;;;;;;-0.87;90.75;94238.19;5029900;28;20188;-77
2021/12/02 03:17:20;;;;;;;8.82;4.97;;;;;;;-0.77;91.54;94238.19;5023081;28;20309;-77
2021/12/02 03:19:48;;;;;;;14.15;5.70;;;;;;;-0.87;91.50;94238.19;5032349;28;20228;-77
2021/12/02 03:22:16;;;;;;;17.83;6.03;;;;;;;-0.85;91.21;94230.75;5022041;28;20205;-77
2021/12/02 03:24:43;;;;;;;8.55;5.15;;;;;;;-0.70;90.71;94234.47;5030056;28;20207;-77
2021/12/02 03:27:10;;;;;;;11.32;5.88;;;;;;;-0.55;90.42;94229.94;5032296;28;20208;-76
2021/12/02 03:29:39;;;;;;;11.40;5.15;;;;;;;-0.56;89.55;94232.88;5031874;28;20207;-76
2021/12/02 03:32:06;;;;;;;8.52;4.72;;;;;;;-0.67;89.33;94237.38;5031904;28;20212;-77
2021/12/02 03:34:33;;;;;;;16.30;5.57;;;;;;;-0.59;89.71;94233.41;5039949;28;20203;-77
2021/12/02 03:37:03;;;;;;;8.75;5.10;;;;;;;-0.38;88.24;94227.75;5039680;28;20702;-77
2021/12/02 03:39:30;;;;;;;21.58;8.10;;;;;;;-0.45;88.55;94229.13;5026226;28;20212;-75
2021/12/02 03:41:57;;;;;;;12.68;5.00;;;;;;;-0.43;88.32;94217.16;5024634;28;20257;-75
2021/12/02 03:44:25;;;;;;;11.75;5.15;;;;;;;-0.47;89.28;94205.44;5018674;28;20200;-75
2021/12/02 03:46:54;;;;;;;7.57;4.18;;;;;;;-0.40;88.82;94215.78;5018713;28;20749;-76
2021/12/02 03:49:22;;;;;;;10.38;5.32;;;;;;;-0.34;89.03;94209.41;5018835;28;20258;-76
2021/12/02 03:51:49;;;;;;;8.70;4.22;;;;;;;-0.38;88.57;94232.28;5031323;28;20725;-75
2021/12/02 03:54:16;;;;;;;12.50;4.60;;;;;;;-0.45;88.28;94219.28;5018819;28;20219;-76
2021/12/02 03:56:43;;;;;;;7.80;3.63;;;;;;;-0.43;89.48;94206.50;5019023;28;20284;-75
2021/12/02 03:59:10;;;;;;;5.65;3.70;;;;;;;-0.32;89.51;94228.56;5044323;28;20204;-76
2021/12/02 04:01:37;;;;;;;5.35;3.58;;;;;;;-0.34;88.76;94214.72;5030194;28;20671;-75
2021/12/02 04:04:05;;;;;;;8.68;3.72;;;;;;;-0.53;89.57;94216.34;5011616;28;20201;-75
2021/12/02 04:06:32;;;;;;;7.25;3.58;;;;;;;-0.58;89.40;94213.72;5024871;28;20212;-75
2021/12/02 04:09:02;;;;;;;4.00;2.00;;;;;;;-0.97;89.42;94208.97;5019934;28;20205;-75
2021/12/02 04:11:32;;;;;;;9.60;4.82;;;;;;;-0.83;89.97;94210.03;5017783;28;20208;-75
2021/12/02 04:14:16;;;;;;;3.50;2.38;;;;;;;-0.74;90.04;94195.13;5022174;28;20220;-74
2021/12/02 04:16:51;;;;;;;8.85;4.43;;;;;;;-0.78;90.40;94204.69;5029798;28;20196;-74
2021/12/02 04:19:20;;;;;;;8.48;4.97;;;;;;;-0.92;90.53;94208.13;5030783;28;20651;-74
2021/12/02 04:21:47;;;;;;;6.97;4.03;;;;;;;-0.97;90.56;94206.31;5017687;28;20208;-74
2021/12/02 04:24:14;;;;;;;13.07;3.70;;;;;;;-1.02;90.09;94214.25;5031141;28;20565;-75
2021/12/02 04:26:43;;;;;;;10.70;4.60;;;;;;;-0.97;89.36;94227.56;5030913;28;20220;-74
2021/12/02 04:29:10;;;;;;;7.00;3.63;;;;;;;-0.78;88.86;94212.66;5030154;28;20287;-75
2021/12/02 04:31:37;;;;;;;7.60;4.25;;;;;;;-0.82;88.31;94224.13;5018906;28;20212;-74
2021/12/02 04:34:04;;;;;;;9.02;4.18;;;;;;;-0.77;88.30;94216.91;5031498;28;20216;-75
2021/12/02 04:36:32;;;;;;;11.02;5.35;;;;;;;-0.79;88.44;94208.41;5029766;28;20258;-75
2021/12/02 04:38:59;;;;;;;10.77;5.50;;;;;;;-0.64;88.43;94198.81;5023396;28;20804;-75
2021/12/02 04:41:26;;;;;;;9.52;3.00;;;;;;;-0.61;88.26;94198.28;5033672;28;20204;-74
2021/12/02 04:43:53;;;;;;;10.98;4.45;;;;;;;-0.64;88.54;94204.13;5038726;28;20272;-75
2021/12/02 04:46:20;;;;;;;11.52;4.57;;;;;;;-0.56;87.74;94206.28;5038492;28;20200;-75
2021/12/02 04:48:47;;;;;;;7.30;4.30;;;;;;;1.33;95.83;94205.03;5041761;28;20208;-78
2021/12/02 04:51:14;;;;;;;10.05;4.28;;;;;;;2.14;98.40;94188.97;5030401;28;20222;-77
2021/12/02 04:53:42;;;;;;;14.18;7.00;;;;;;;3.99;96.52;94183.97;5032673;28;20199;-76
2021/12/02 04:56:09;;;;;;;21.27;11.00;;;;;;;4.08;84.46;94171.47;5037540;28;20760;-76
2021/12/02 04:58:36;;;;;;;13.57;5.97;;;;;;;2.35;82.43;94178.03;5035370;28;20788;-76
2021/12/02 05:01:03;;;;;;;13.98;5.35;;;;;;;1.43;83.85;94172.91;5034581;28;20199;-74
2021/12/02 05:03:30;;;;;;;7.05;4.57;;;;;;;0.88;83.66;94174.19;5038542;28;20196;-75
2021/12/02 05:05:57;;;;;;;10.52;4.07;;;;;;;0.40;85.91;94168.66;5034080;28;20205;-76
2021/12/02 05:08:27;;;;;;;7.47;4.22;;;;;;;0.17;86.81;94171.94;5021274;28;20196;-73
2021/12/02 05:10:58;;;;;;;16.98;8.90;;;;;;;0.12;87.10;94174.66;5032124;28;20492;-76
2021/12/02 05:13:24;;;;;;;14.18;6.47;;;;;;;0.02;87.90;94175.47;5030048;28;20208;-75
2021/12/02 05:15:51;;;;;;;18.50;7.95;;;;;;;0.04;87.63;94172.53;5031924;28;20212;-75
2021/12/02 05:18:18;;;;;;;12.05;5.90;;;;;;;-0.22;87.55;94174.50;5033516;28;20239;-75
2021/12/02 05:20:45;;;;;;;16.48;8.05;;;;;;;-0.11;86.71;94176.84;5034079;28;20239;-75
2021/12/02 05:23:12;;;;;;;12.65;5.38;;;;;;;-0.24;85.07;94174.78;5034108;28;20212;-75
2021/12/02 05:25:43;;;;;;;6.15;2.70;;;;;;;-0.39;86.97;94172.16;5034183;28;20208;-75
2021/12/02 05:28:11;;;;;;;11.45;4.72;;;;;;;-0.39;87.43;94183.59;5034106;28;20189;-75
2021/12/02 05:30:38;;;;;;;11.90;4.50;;;;;;;-0.56;87.70;94167.16;5020933;28;20209;-76
2021/12/02 05:33:05;;;;;;;9.27;4.30;;;;;;;-0.57;88.33;94167.44;5027404;28;20221;-75
2021/12/02 05:35:32;;;;;;;8.15;4.28;;;;;;;-0.50;88.49;94176.72;5033048;28;20243;-75
2021/12/02 05:37:59;;;;;;;12.10;4.72;;;;;;;-0.43;88.26;94179.09;5034149;28;20290;-74
2021/12/02 05:40:26;;;;;;;5.50;3.05;;;;;;;-0.54;87.28;94166.88;5020670;28;20259;-75
2021/12/02 05:42:53;;;;;;;9.35;4.47;;;;;;;-0.80;88.35;94182.09;5033295;28;20571;-74
2021/12/02 05:45:21;;;;;;;11.45;6.32;;;;;;;-1.03;89.03;94179.97;5033906;28;20212;-76
2021/12/02 05:47:48;;;;;;;10.60;4.82;;;;;;;-1.04;89.55;94181.84;5034085;28;20204;-76
2021/12/02 05:50:15;;;;;;;13.13;4.82;;;;;;;-1.02;90.00;94182.38;5032968;28;20689;-73
2021/12/02 05:52:44;;;;;;;8.75;4.38;;;;;;;-0.99;88.95;94170.41;5021543;28;20212;-76
2021/12/02 05:55:11;;;;;;;10.95;5.25;;;;;;;-0.92;90.63;94177.03;5029799;28;20282;-75
2021/12/02 05:57:39;;;;;;;12.05;5.20;;;;;;;-0.75;89.21;94172.25;5042088;28;20236;-75
2021/12/02 06:00:09;;;;;;;14.60;5.72;;;;;;;-0.59;88.61;94174.88;5037982;28;20196;-76
2021/12/02 06:02:37;;;;;;;13.80;6.97;;;;;;;-0.77;88.51;94169.06;5036424;28;20213;-76
2021/12/02 06:05:06;;;;;;;14.25;7.50;;;;;;;-0.26;88.01;94192.88;5043806;28;20597;-75
2021/12/02 06:07:33;;;;;;;15.30;7.18;;;;;;;0.62;87.25;94178.91;5043064;28;20295;-76
2021/12/02 06:10:00;;;;;;;14.35;6.32;;;;;;;1.26;83.88;94173.34;5041497;28;20203;-76
2021/12/02 06:12:27;;;;;;;11.77;6.00;;;;;;;1.82;80.25;94174.66;5041060;28;20193;-76
2021/12/02 06:14:54;;;;;;;15.48;5.72;;;;;;;2.42;79.81;94168.59;5042470;28;20201;-75
2021/12/02 06:17:21;;;;;;;12.55;7.45;;;;;;;2.55;77.22;94161.72;5044149;28;20235;-76
2021/12/02 06:19:49;;;;;;;17.65;8.77;;;;;;;1.53;78.63;94166.69;5034698;28;20200;-75
2021/12/02 06:22:16;;;;;;;21.90;8.85;;;;;;;1.38;79.31;94173.75;5025330;28;20201;-76
2021/12/02 06:24:46;;;;;;;13.45;6.72;;;;;;;1.23;78.72;94189.88;5043090;28;20218;-75
2021/12/02 06:27:13;;;;;;;11.75;6.13;;;;;;;1.27;80.68;94174.94;5038746;28;20644;-75
2021/12/02 06:29:41;;;;;;;13.55;6.80;;;;;;;1.15;81.18;94193.16;5040906;28;20253;-74
2021/12/02 06:32:09;;;;;;;22.92;9.13;;;;;;;1.01;81.35;94184.22;5040459;28;20219;-75
2021/12/02 06:34:36;;;;;;;11.48;5.38;;;;;;;0.68;83.02;94197.22;5042607;28;20196;-75
2021/12/02 06:37:04;;;;;;;20.05;6.78;;;;;;;0.42;82.98;94174.47;5043428;28;20273;-75
2021/12/02 06:39:31;;;;;;;12.40;6.70;;;;;;;0.47;84.69;94203.75;5043733;28;20227;-75
2021/12/02 06:41:58;;;;;;;12.60;7.07;;;;;;;0.37;84.26;94179.84;5052409;28;20215;-76
2021/12/02 06:44:25;;;;;;;12.07;6.43;;;;;;;0.36;86.04;94202.22;5032190;28;20204;-75
2021/12/02 06:46:52;;;;;;;25.23;8.32;;;;;;;0.43;85.22;94205.38;5031951;28;20208;-75
2021/12/02 06:49:19;;;;;;;15.75;6.78;;;;;;;0.63;85.64;94202.59;5013176;28;20255;-75
2021/12/02 06:51:46;;;;;;;12.23;7.22;;;;;;;0.88;85.07;94179.50;5025473;28;20208;-74
2021/12/02 06:54:14;;;;;;;13.77;7.35;;;;;;;1.04;83.44;94186.34;5018488;28;20211;-74
2021/12/02 06:56:41;;;;;;;20.63;8.93;;;;;;;1.22;84.17;94182.19;5019325;28;20209;-75
2021/12/02 06:59:08;;;;;;;17.80;8.18;;;;;;;1.29;82.65;94177.31;5031746;28;20714;-75
2021/12/02 07:01:35;;;;;;;20.08;10.50;;;;;;;1.17;83.72;94187.56;5031604;28;20729;-73
2021/12/02 07:04:02;;;;;;;16.67;9.05;;;;;;;1.23;83.12;94184.56;5031613;28;20290;-74
2021/12/02 07:06:29;;;;;;;5.57;4.80;;;;;;;1.22;82.94;94188.31;5018900;28;20616;-74
2021/12/02 07:08:55;;;;;;;14.32;7.50;;;;;;;0.99;84.85;94199.69;5032360;28;20208;-73
2021/12/02 07:11:24;;;;;;;18.15;9.88;;;;;;;1.05;84.35;94188.72;5035246;28;20215;-73
2021/12/02 07:13:55;;;;;;;16.85;10.63;;;;;;;0.98;85.40;94187.44;5032947;28;20215;-74
2021/12/02 07:16:22;;;;;;;18.73;9.70;;;;;;;1.08;84.52;94184.72;5032314;28;20199;-74
2021/12/02 07:18:55;;;;;;;23.23;12.57;;;;;;;1.13;84.41;94191.84;5031804;28;20244;-75
2021/12/02 07:21:23;;;;;;;20.33;10.20;;;;;;;1.39;84.73;94182.56;5031637;28;20215;-74
2021/12/02 07:23:50;;;;;;;20.40;10.13;;;;;;;1.63;84.05;94183.41;5031141;28;20204;-74
2021/12/02 07:26:17;;;;;;;22.40;11.70;;;;;;;1.86;84.09;94181.03;5018268;28;20212;-73
2021/12/02 07:28:47;;;;;;;21.73;11.18;;;;;;;1.79;82.14;94178.69;5031328;28;20211;-73
2021/12/02 07:31:14;;;;;;;21.35;9.85;;;;;;;2.04;81.70;94178.41;5026648;28;20638;-73
2021/12/02 07:33:47;;;;;;;31.95;9.70;;;;;;;2.38;81.53;94177.44;5029302;28;20201;-73
2021/12/02 07:36:14;;;;;;;17.58;9.10;;;;;;;2.56;80.51;94174.00;5032006;28;20295;-73
2021/12/02 07:38:41;;;;;;;26.10;12.95;;;;;;;2.58;79.93;94177.19;5019451;28;20596;-74
2021/12/02 07:41:08;;;;;;;25.70;11.25;;;;;;;2.74;79.53;94181.22;5024845;28;20231;-73
2021/12/02 07:43:37;;;;;;;18.52;9.68;;;;;;;2.74;78.95;94170.53;5024740;28;20204;-74
2021/12/02 07:46:06;;;;;;;18.35;9.75;;;;;;;2.94;78.63;94163.28;5018825;28;20212;-74
2021/12/02 07:48:35;;;;;;;18.17;9.00;;;;;;;3.14;78.30;94165.66;5018298;28;20343;-73
2021/12/02 07:51:04;;;;;;;25.75;11.75;;;;;;;3.35;77.11;94164.22;5018482;28;20295;-74
2021/12/02 07:53:31;;;;;;;21.27;10.18;;;;;;;3.48;76.89;94157.31;5031718;28;20204;-74
2021/12/02 07:56:03;;;;;;;24.48;10.45;;;;;;;3.56;75.84;94173.50;5024104;28;20897;-74
2021/12/02 07:58:30;;;;;;;14.25;7.70;;;;;;;3.58;74.89;94168.63;5027184;28;20223;-75
2021/12/02 08:00:59;;;;;;;12.15;6.40;;;;;;;3.71;75.47;94167.06;5031713;28;20211;-74
2021/12/02 08:03:29;;;;;;;13.60;7.40;;;;;;;3.94;74.36;94176.03;5017628;28;20213;-73
2021/12/02 08:05:56;;;;;;;19.80;7.32;;;;;;;4.00;72.95;94166.78;5022012;28;20197;-76
2021/12/02 08:08:23;;;;;;;13.27;7.38;;;;;;;4.15;72.02;94166.50;5027310;28;20225;-74
2021/12/02 08:10:50;;;;;;;11.10;5.95;;;;;;;4.12;71.50;94172.44;5030898;28;20211;-74
2021/12/02 08:13:17;;;;;;;20.50;10.98;;;;;;;4.27;73.51;94174.03;5031397;28;20239;-74
2021/12/02 08:15:44;;;;;;;16.95;7.50;;;;;;;4.53;71.90;94168.94;5031649;28;20258;-74
2021/12/02 08:18:11;;;;;;;14.80;4.93;;;;;;;4.60;71.62;94169.34;5030862;28;20922;-74
2021/12/02 08:20:40;;;;;;;10.23;4.93;;;;;;;4.79;69.11;94167.28;5030948;28;20208;-74
2021/12/02 08:23:06;;;;;;;8.05;3.70;;;;;;;4.40;68.39;94165.19;5029303;28;20679;-74
2021/12/02 08:25:33;;;;;;;10.38;4.28;;;;;;;4.50;69.84;94167.69;5023712;28;20209;-75
2021/12/02 08:28:01;;;;;;;8.85;3.28;;;;;;;4.56;68.50;94171.81;5028811;28;20208;-75
2021/12/02 08:30:29;;;;;;;6.47;3.00;;;;;;;4.84;71.03;94166.41;5030007;28;20294;-74
2021/12/02 08:32:58;;;;;;;7.80;3.33;;;;;;;4.78;66.71;94163.06;5025971;28;20212;-74
2021/12/02 08:35:25;;;;;;;3.75;2.78;;;;;;;5.43;69.08;94162.59;5029131;28;20277;-75
2021/12/02 08:37:57;;;;;;;7.82;4.47;;;;;;;5.53;72.07;94151.59;5028619;28;20204;-74
2021/12/02 08:40:31;;;;;;;12.50;6.70;;;;;;;5.97;74.52;94156.09;5029161;28;20192;-75
2021/12/02 08:42:59;;;;;;;14.80;6.22;;;;;;;6.95;63.92;94152.22;5029102;28;20682;-76
2021/12/02 08:45:27;;;;;;;11.73;4.90;;;;;;;6.37;66.09;94142.63;5016343;28;20304;-75
2021/12/02 08:47:53;;;;;;;11.20;4.20;;;;;;;5.51;64.99;94145.72;5029413;28;20563;-76
2021/12/02 08:50:22;;;;;;;10.75;3.80;;;;;;;5.25;65.50;94155.50;5029133;28;20204;-76
2021/12/02 08:52:51;;;;;;;7.40;4.00;;;;;;;5.09;66.36;94151.59;5027182;28;20235;-76
2021/12/02 08:55:22;;;;;;;6.78;2.70;;;;;;;4.91;66.41;94146.13;5025774;28;20798;-76
2021/12/02 08:57:51;;;;;;;4.13;1.95;;;;;;;5.04;65.62;94149.03;5028069;28;20212;-76
2021/12/02 09:00:21;;;;;;;5.38;3.08;;;;;;;4.94;65.85;94132.06;5028957;28;20223;-77
2021/12/02 09:02:48;;;;;;;5.68;3.42;;;;;;;5.05;66.51;94123.78;5029463;28;20211;-77
2021/12/02 09:05:15;;;;;;;8.93;4.18;;;;;;;5.05;67.58;94129.97;5025874;28;20204;-77
2021/12/02 09:07:43;;;;;;;7.40;2.70;;;;;;;5.08;67.32;94133.91;5029345;28;20250;-77
2021/12/02 09:10:11;;;;;;;5.18;2.53;;;;;;;4.90;67.42;94112.31;5028610;28;20208;-78
2021/12/02 09:12:39;;;;;;;15.95;5.53;;;;;;;4.89;67.70;94126.84;5029254;28;20238;-79
2021/12/02 09:15:08;;;;;;;9.52;5.30;;;;;;;5.11;67.33;94122.56;5042866;28;20618;-78
2021/12/02 09:17:35;;;;;;;17.50;4.32;;;;;;;5.28;66.27;94106.56;5037962;28;20200;-81
2021/12/02 09:20:02;;;;;;;8.68;4.32;;;;;;;5.39;66.91;94107.91;5028894;28;20235;-81
2021/12/02 09:22:29;;;;;;;6.57;2.88;;;;;;;5.46;65.63;94092.16;5027307;28;20220;-80
2021/12/02 09:24:56;;;;;;;11.00;4.72;;;;;;;5.50;67.46;94100.34;5032329;28;20216;-81
2021/12/02 09:27:22;;;;;;;8.73;3.67;;;;;;;5.54;66.43;94104.03;5028967;28;20205;-80
2021/12/02 09:29:51;;;;;;;4.40;3.40;;;;;;;5.46;65.28;94092.16;5027969;28;20252;-80
2021/12/02 09:32:18;;;;;;;7.35;3.90;;;;;;;5.40;64.68;94093.38;5028746;28;20219;-80
2021/12/02 09:34:45;;;;;;;4.63;3.17;;;;;;;5.50;65.32;94103.03;5032214;28;20203;-83
2021/12/02 09:37:12;;;;;;;8.02;3.88;;;;;;;5.40;64.88;94093.38;5029234;28;20609;-82
2021/12/02 09:39:39;;;;;;;9.43;4.80;;;;;;;5.46;65.01;94096.72;5022629;28;20425;-81
2021/12/02 09:42:10;;;;;;;8.15;3.80;;;;;;;5.41;64.25;94100.31;5022834;28;20204;-80
2021/12/02 09:44:37;;;;;;;15.50;5.05;;;;;;;5.51;65.17;94089.31;5028420;28;20238;-81
2021/12/02 09:47:06;;;;;;;5.07;2.90;;;;;;;5.53;64.73;94089.00;5027278;28;20196;-83
2021/12/02 09:49:33;;;;;;;14.80;4.32;;;;;;;5.61;64.59;94077.50;5030293;28;20211;-81
2021/12/02 09:52:03;;;;;;;11.05;4.22;;;;;;;5.72;65.36;94087.69;5028334;28;20559;-80
2021/12/02 09:54:37;;;;;;;6.80;3.47;;;;;;;5.74;64.36;94065.09;5027141;28;20251;-78
2021/12/02 09:57:06;;;;;;;5.95;3.78;;;;;;;5.85;63.98;94074.44;5024832;28;20205;-78
2021/12/02 09:59:45;;;;;;;9.40;4.70;;;;;;;5.45;64.17;94063.69;5021271;28;20241;-79
2021/12/02 10:02:17;;;;;;;5.40;2.78;;;;;;;5.67;64.14;94082.44;5021108;28;20197;-79
2021/12/02 10:04:48;;;;;;;7.22;4.32;;;;;;;5.77;63.80;94065.22;5025529;28;20200;-79
2021/12/02 10:07:21;;;;;;;10.15;4.72;;;;;;;5.84;63.94;94065.59;5033278;28;20201;-78
2021/12/02 10:10:01;;;;;;;8.63;4.78;;;;;;;5.94;63.25;94059.94;5032181;28;20200;-78
2021/12/02 10:12:29;;;;;;;9.55;5.03;;;;;;;5.77;63.21;94048.31;5031562;28;20662;-79
2021/12/02 10:14:58;;;;;;;12.32;6.22;;;;;;;6.00;64.48;94047.16;5028549;28;20207;-79
2021/12/02 10:17:35;;;;;;;9.50;5.35;;;;;;;6.19;63.81;94044.97;5023677;28;20219;-81
2021/12/02 10:20:22;;;;;;;12.77;6.88;;;;;;;6.43;62.65;94045.31;5018468;28;20220;-79
2021/12/02 10:23:12;;;;;;;12.02;5.43;;;;;;;6.22;63.13;94044.34;5018824;28;20193;-79
2021/12/02 10:25:40;;;;;;;10.48;5.57;;;;;;;6.27;65.14;94041.53;5030268;28;20208;-78
2021/12/02 10:28:08;;;;;;;5.68;3.67;;;;;;;6.36;62.38;94034.25;5032126;28;20203;-79
2021/12/02 10:30:40;;;;;;;6.90;4.60;;;;;;;6.25;62.01;94019.53;5031020;28;20235;-79
2021/12/02 10:33:09;;;;;;;10.55;5.47;;;;;;;6.57;63.20;94022.84;5028716;28;20450;-79
2021/12/02 10:35:49;;;;;;;6.70;4.07;;;;;;;6.54;61.83;94015.44;5028489;28;20252;-79
2021/12/02 10:38:37;;;;;;;5.88;3.92;;;;;;;6.19;61.59;94012.72;5038300;28;20643;-79
2021/12/02 10:41:06;;;;;;;8.65;4.57;;;;;;;6.35;61.38;94031.88;5035459;28;20206;-80
2021/12/02 10:43:33;;;;;;;5.97;3.60;;;;;;;6.43;60.89;94015.72;5036177;28;20242;-81
2021/12/02 10:46:18;;;;;;;13.25;4.80;;;;;;;6.58;60.53;94006.38;5038080;28;20199;-80
2021/12/02 10:48:50;;;;;;;12.32;3.85;;;;;;;6.74;60.47;93998.63;5037154;28;20196;-80
2021/12/02 10:51:43;;;;;;;8.35;4.22;;;;;;;6.71;60.81;93991.19;5028640;28;20192;-80
2021/12/02 10:54:14;;;;;;;10.48;5.25;;;;;;;6.86;60.17;93990.69;5022122;28;20219;-79
2021/12/02 10:56:48;;;;;;;18.55;7.18;;;;;;;6.83;61.12;93980.59;5030758;28;20246;-78
2021/12/02 10:59:48;;;;;;;12.10;6.30;;;;;;;6.84;60.29;93974.06;5031263;28;20223;-79
2021/12/02 11:02:23;;;;;;;12.50;6.65;;;;;;;6.99;61.74;93981.63;5010668;28;20252;-80
2021/12/02 11:04:56;;;;;;;15.50;6.97;;;;;;;7.05;60.08;93977.66;5029423;28;20238;-79
2021/12/02 11:07:25;;;;;;;17.67;7.03;;;;;;;6.92;60.05;93970.56;5041427;28;20241;-79
2021/12/02 11:09:53;;;;;;;11.18;6.22;;;;;;;7.01;60.26;93962.47;5040019;28;20290;-79
2021/12/02 11:12:23;;;;;;;11.90;7.30;;;;;;;7.10;60.70;93955.19;5035567;28;20286;-79
2021/12/02 11:15:02;;;;;;;11.50;6.47;;;;;;;7.29;61.36;93962.84;5041288;28;20280;-78
2021/12/02 11:17:32;;;;;;;15.43;7.15;;;;;;;7.32;58.96;93943.34;5037458;28;20192;-78
2021/12/02 11:20:02;;;;;;;17.23;7.45;;;;;;;7.35;59.86;93942.72;5043492;28;20699;-81
2021/12/02 11:22:30;;;;;;;13.60;7.07;;;;;;;7.45;60.81;93950.44;5039686;28;20206;-78
2021/12/02 11:24:58;;;;;;;15.13;8.18;;;;;;;7.38;59.67;93944.78;5039142;28;20665;-78
2021/12/02 11:27:30;;;;;;;17.90;8.05;;;;;;;7.44;59.59;93938.06;5041221;28;20204;-79
2021/12/02 11:30:00;;;;;;;14.32;7.80;;;;;;;7.47;59.54;93932.03;5039470;28;20216;-79
2021/12/02 11:32:39;;;;;;;14.65;8.23;;;;;;;7.35;59.39;93940.03;5035358;28;20648;-78
2021/12/02 11:35:13;;;;;;;13.13;7.68;;;;;;;7.28;60.84;93934.34;5033038;28;20279;-78
2021/12/02 11:37:42;;;;;;;13.73;7.75;;;;;;;7.29;60.21;93931.31;5021978;28;20228;-78
2021/12/02 11:40:12;;;;;;;18.30;6.80;;;;;;;7.30;59.76;93932.09;5015917;28;20239;-77
2021/12/02 11:42:39;;;;;;;12.48;7.53;;;;;;;7.30;59.48;93935.59;5018865;28;20207;-78
2021/12/02 11:45:09;;;;;;;11.50;5.90;;;;;;;7.26;59.50;93915.00;5015089;28;20208;-77
2021/12/02 11:47:37;;;;;;;10.50;6.30;;;;;;;7.23;59.83;93921.84;5019193;28;20262;-78
2021/12/02 11:50:06;;;;;;;12.98;6.97;;;;;;;7.42;60.16;93930.31;5029698;28;20212;-78